sensor_id;sensor_type;location;lat;lon;timestamp;temperature;humidity
25741;DHT22;13592;50.838;4.412;2023-04-03T00:01:37;6.70;99.90
25741;DHT22;13592;50.838;4.412;2023-04-03T00:04:05;6.60;99.90
25741;DHT22;13592;50.838;4.412;2023-04-03T00:06:33;6.70;99.90
25741;DHT22;13592;50.838;4.412;2023-04-03T00:09:03;6.70;99.90
25741;DHT22;13592;50.838;4.412;2023-04-03T00:11:31;6.70;99.90
25741;DHT22;13592;50.838;4.412;2023-04-03T00:14:05;6.60;99.90
25741;DHT22;13592;50.838;4.412;2023-04-03T00:16:37;6.60;99.90
25741;DHT22;13592;50.838;4.412;2023-04-03T00:19:08;6.60;99.90
25741;DHT22;13592;50.838;4.412;2023-04-03T00:24:10;6.60;99.90
25741;DHT22;13592;50.838;4.412;2023-04-03T00:26:36;6.80;99.90
25741;DHT22;13592;50.838;4.412;2023-04-03T00:29:02;6.60;99.90
25741;DHT22;13592;50.838;4.412;2023-04-03T00:31:29;6.50;99.90
25741;DHT22;13592;50.838;4.412;2023-04-03T00:36:26;6.60;99.90
25741;DHT22;13592;50.838;4.412;2023-04-03T00:39:01;6.50;99.90
25741;DHT22;13592;50.838;4.412;2023-04-03T00:41:36;6.50;99.90
25741;DHT22;13592;50.838;4.412;2023-04-03T00:47:16;6.60;99.90
25741;DHT22;13592;50.838;4.412;2023-04-03T00:55:42;6.50;99.90
25741;DHT22;13592;50.838;4.412;2023-04-03T00:58:10;6.40;99.90
25741;DHT22;13592;50.838;4.412;2023-04-03T01:03:14;6.40;99.90
25741;DHT22;13592;50.838;4.412;2023-04-03T01:05:50;6.40;99.90
25741;DHT22;13592;50.838;4.412;2023-04-03T01:10:50;6.60;99.90
25741;DHT22;13592;50.838;4.412;2023-04-03T01:13:29;6.70;99.90
25741;DHT22;13592;50.838;4.412;2023-04-03T01:15:55;6.60;99.90
25741;DHT22;13592;50.838;4.412;2023-04-03T01:18:24;6.60;99.90
25741;DHT22;13592;50.838;4.412;2023-04-03T01:21:03;6.60;99.90
25741;DHT22;13592;50.838;4.412;2023-04-03T01:26:14;6.40;99.90
25741;DHT22;13592;50.838;4.412;2023-04-03T01:28:39;6.40;99.90
25741;DHT22;13592;50.838;4.412;2023-04-03T01:33:35;6.20;99.90
25741;DHT22;13592;50.838;4.412;2023-04-03T01:36:01;6.40;99.90
25741;DHT22;13592;50.838;4.412;2023-04-03T01:38:30;6.40;99.90
25741;DHT22;13592;50.838;4.412;2023-04-03T01:40:56;6.40;99.90
25741;DHT22;13592;50.838;4.412;2023-04-03T01:43:26;6.50;99.90
25741;DHT22;13592;50.838;4.412;2023-04-03T01:45:53;6.40;99.90
25741;DHT22;13592;50.838;4.412;2023-04-03T01:51:05;6.40;99.90
25741;DHT22;13592;50.838;4.412;2023-04-03T01:53:34;6.20;99.90
25741;DHT22;13592;50.838;4.412;2023-04-03T01:56:02;6.30;99.90
25741;DHT22;13592;50.838;4.412;2023-04-03T01:58:30;6.40;99.90
25741;DHT22;13592;50.838;4.412;2023-04-03T02:00:59;6.30;99.90
25741;DHT22;13592;50.838;4.412;2023-04-03T02:03:24;6.20;99.90
25741;DHT22;13592;50.838;4.412;2023-04-03T02:05:50;6.10;99.90
25741;DHT22;13592;50.838;4.412;2023-04-03T02:08:19;6.10;99.90
25741;DHT22;13592;50.838;4.412;2023-04-03T02:10:48;6.00;99.90
25741;DHT22;13592;50.838;4.412;2023-04-03T02:13:16;6.00;99.90
25741;DHT22;13592;50.838;4.412;2023-04-03T02:15:43;5.90;99.90
25741;DHT22;13592;50.838;4.412;2023-04-03T02:18:12;5.90;99.90
25741;DHT22;13592;50.838;4.412;2023-04-03T02:20:38;6.00;99.90
25741;DHT22;13592;50.838;4.412;2023-04-03T02:23:08;6.20;99.90
25741;DHT22;13592;50.838;4.412;2023-04-03T02:28:17;6.10;99.90
25741;DHT22;13592;50.838;4.412;2023-04-03T02:30:45;6.20;99.90
25741;DHT22;13592;50.838;4.412;2023-04-03T02:33:12;6.20;99.90
25741;DHT22;13592;50.838;4.412;2023-04-03T02:35:38;6.10;99.90
25741;DHT22;13592;50.838;4.412;2023-04-03T02:38:05;6.10;99.90
25741;DHT22;13592;50.838;4.412;2023-04-03T02:40:35;6.20;99.90
25741;DHT22;13592;50.838;4.412;2023-04-03T02:43:06;6.10;99.90
25741;DHT22;13592;50.838;4.412;2023-04-03T02:45:35;6.00;99.90
25741;DHT22;13592;50.838;4.412;2023-04-03T02:48:13;6.00;99.90
25741;DHT22;13592;50.838;4.412;2023-04-03T02:50:50;6.20;99.90
25741;DHT22;13592;50.838;4.412;2023-04-03T02:53:17;6.20;99.90
25741;DHT22;13592;50.838;4.412;2023-04-03T02:55:45;6.10;99.90
25741;DHT22;13592;50.838;4.412;2023-04-03T02:58:11;6.00;99.90
25741;DHT22;13592;50.838;4.412;2023-04-03T03:00:39;6.00;99.90
25741;DHT22;13592;50.838;4.412;2023-04-03T03:03:11;6.00;99.90
25741;DHT22;13592;50.838;4.412;2023-04-03T03:05:41;5.80;99.90
25741;DHT22;13592;50.838;4.412;2023-04-03T03:08:08;5.80;99.90
25741;DHT22;13592;50.838;4.412;2023-04-03T03:10:34;5.80;99.90
25741;DHT22;13592;50.838;4.412;2023-04-03T03:13:06;5.90;99.90
25741;DHT22;13592;50.838;4.412;2023-04-03T03:15:35;5.70;99.90
25741;DHT22;13592;50.838;4.412;2023-04-03T03:18:01;5.70;99.90
25741;DHT22;13592;50.838;4.412;2023-04-03T03:20:28;5.80;99.90
25741;DHT22;13592;50.838;4.412;2023-04-03T03:22:53;5.60;99.90
25741;DHT22;13592;50.838;4.412;2023-04-03T03:25:20;5.70;99.90
25741;DHT22;13592;50.838;4.412;2023-04-03T03:27:49;5.60;99.90
25741;DHT22;13592;50.838;4.412;2023-04-03T03:30:14;5.60;99.90
25741;DHT22;13592;50.838;4.412;2023-04-03T03:32:43;5.50;99.90
25741;DHT22;13592;50.838;4.412;2023-04-03T03:35:12;5.40;99.90
25741;DHT22;13592;50.838;4.412;2023-04-03T03:37:43;5.50;99.90
25741;DHT22;13592;50.838;4.412;2023-04-03T03:40:11;5.50;99.90
25741;DHT22;13592;50.838;4.412;2023-04-03T03:42:41;5.50;99.90
25741;DHT22;13592;50.838;4.412;2023-04-03T03:45:09;5.50;99.90
25741;DHT22;13592;50.838;4.412;2023-04-03T03:47:36;5.40;99.90
25741;DHT22;13592;50.838;4.412;2023-04-03T03:50:05;5.40;99.90
25741;DHT22;13592;50.838;4.412;2023-04-03T03:52:30;5.40;99.90
25741;DHT22;13592;50.838;4.412;2023-04-03T03:54:56;5.30;99.90
25741;DHT22;13592;50.838;4.412;2023-04-03T03:57:22;5.30;99.90
25741;DHT22;13592;50.838;4.412;2023-04-03T03:59:51;5.40;99.90
25741;DHT22;13592;50.838;4.412;2023-04-03T04:02:18;5.30;99.90
25741;DHT22;13592;50.838;4.412;2023-04-03T04:04:43;5.40;99.90
25741;DHT22;13592;50.838;4.412;2023-04-03T04:07:10;5.40;99.90
25741;DHT22;13592;50.838;4.412;2023-04-03T04:09:38;5.30;99.90
25741;DHT22;13592;50.838;4.412;2023-04-03T04:12:12;5.30;99.90
25741;DHT22;13592;50.838;4.412;2023-04-03T04:14:38;5.20;99.90
25741;DHT22;13592;50.838;4.412;2023-04-03T04:17:05;5.20;99.90
25741;DHT22;13592;50.838;4.412;2023-04-03T04:19:35;5.20;99.90
25741;DHT22;13592;50.838;4.412;2023-04-03T04:22:09;5.10;99.90
25741;DHT22;13592;50.838;4.412;2023-04-03T04:24:44;5.20;99.90
25741;DHT22;13592;50.838;4.412;2023-04-03T04:29:58;5.10;99.90
25741;DHT22;13592;50.838;4.412;2023-04-03T04:32:29;5.20;99.90
25741;DHT22;13592;50.838;4.412;2023-04-03T04:34:57;5.20;99.90
25741;DHT22;13592;50.838;4.412;2023-04-03T04:37:25;5.10;99.90
25741;DHT22;13592;50.838;4.412;2023-04-03T04:42:50;5.00;99.90
25741;DHT22;13592;50.838;4.412;2023-04-03T04:45:18;5.10;99.90
25741;DHT22;13592;50.838;4.412;2023-04-03T04:50:30;5.20;99.90
25741;DHT22;13592;50.838;4.412;2023-04-03T04:52:59;5.10;99.90
25741;DHT22;13592;50.838;4.412;2023-04-03T04:55:24;5.10;99.90
25741;DHT22;13592;50.838;4.412;2023-04-03T04:57:55;5.10;99.90
25741;DHT22;13592;50.838;4.412;2023-04-03T05:00:24;5.00;99.90
25741;DHT22;13592;50.838;4.412;2023-04-03T05:02:50;5.10;99.90
25741;DHT22;13592;50.838;4.412;2023-04-03T05:05:23;5.10;99.90
25741;DHT22;13592;50.838;4.412;2023-04-03T05:07:53;5.10;99.90
25741;DHT22;13592;50.838;4.412;2023-04-03T05:10:19;5.00;99.90
25741;DHT22;13592;50.838;4.412;2023-04-03T05:12:47;4.90;99.90
25741;DHT22;13592;50.838;4.412;2023-04-03T05:15:15;4.90;99.90
25741;DHT22;13592;50.838;4.412;2023-04-03T05:20:12;4.90;99.90
25741;DHT22;13592;50.838;4.412;2023-04-03T05:22:53;5.10;99.90
25741;DHT22;13592;50.838;4.412;2023-04-03T05:25:29;5.00;99.90
25741;DHT22;13592;50.838;4.412;2023-04-03T05:27:59;5.10;99.90
25741;DHT22;13592;50.838;4.412;2023-04-03T05:30:26;5.10;99.90
25741;DHT22;13592;50.838;4.412;2023-04-03T05:33:01;5.10;99.90
25741;DHT22;13592;50.838;4.412;2023-04-03T05:35:28;5.00;99.90
25741;DHT22;13592;50.838;4.412;2023-04-03T05:37:54;4.80;99.90
25741;DHT22;13592;50.838;4.412;2023-04-03T05:40:24;4.90;99.90
25741;DHT22;13592;50.838;4.412;2023-04-03T05:42:52;5.00;99.90
25741;DHT22;13592;50.838;4.412;2023-04-03T05:45:21;5.10;99.90
25741;DHT22;13592;50.838;4.412;2023-04-03T05:48:02;5.20;99.90
25741;DHT22;13592;50.838;4.412;2023-04-03T05:50:32;5.20;99.90
25741;DHT22;13592;50.838;4.412;2023-04-03T05:52:57;5.20;99.90
25741;DHT22;13592;50.838;4.412;2023-04-03T05:55:25;5.10;99.90
25741;DHT22;13592;50.838;4.412;2023-04-03T05:57:58;5.20;99.90
25741;DHT22;13592;50.838;4.412;2023-04-03T06:00:34;5.20;99.90
25741;DHT22;13592;50.838;4.412;2023-04-03T06:03:09;5.30;99.90
25741;DHT22;13592;50.838;4.412;2023-04-03T06:08:06;5.20;99.90
25741;DHT22;13592;50.838;4.412;2023-04-03T06:10:42;5.20;99.90
25741;DHT22;13592;50.838;4.412;2023-04-03T06:13:12;5.20;99.90
25741;DHT22;13592;50.838;4.412;2023-04-03T06:15:43;5.40;99.90
25741;DHT22;13592;50.838;4.412;2023-04-03T06:20:52;5.50;99.90
25741;DHT22;13592;50.838;4.412;2023-04-03T06:26:14;5.50;99.90
25741;DHT22;13592;50.838;4.412;2023-04-03T06:28:41;5.60;99.90
25741;DHT22;13592;50.838;4.412;2023-04-03T06:31:32;5.60;99.90
25741;DHT22;13592;50.838;4.412;2023-04-03T06:33:57;5.60;99.90
25741;DHT22;13592;50.838;4.412;2023-04-03T06:36:29;5.70;99.90
25741;DHT22;13592;50.838;4.412;2023-04-03T06:38:55;5.80;99.90
25741;DHT22;13592;50.838;4.412;2023-04-03T06:41:26;5.90;99.90
25741;DHT22;13592;50.838;4.412;2023-04-03T06:43:55;6.10;99.90
25741;DHT22;13592;50.838;4.412;2023-04-03T06:46:38;6.30;99.90
25741;DHT22;13592;50.838;4.412;2023-04-03T06:49:07;7.00;99.90
25741;DHT22;13592;50.838;4.412;2023-04-03T06:51:33;8.00;99.90
25741;DHT22;13592;50.838;4.412;2023-04-03T06:56:42;9.90;99.90
25741;DHT22;13592;50.838;4.412;2023-04-03T07:02:17;12.40;99.90
25741;DHT22;13592;50.838;4.412;2023-04-03T07:05:02;14.30;99.90
25741;DHT22;13592;50.838;4.412;2023-04-03T07:13:28;20.30;92.70
25741;DHT22;13592;50.838;4.412;2023-04-03T07:16:08;22.50;84.00
25741;DHT22;13592;50.838;4.412;2023-04-03T07:25:31;26.10;64.00
25741;DHT22;13592;50.838;4.412;2023-04-03T07:40:41;30.50;46.20
25741;DHT22;13592;50.838;4.412;2023-04-03T07:43:26;31.50;44.00
25741;DHT22;13592;50.838;4.412;2023-04-03T07:46:05;32.00;42.70
25741;DHT22;13592;50.838;4.412;2023-04-03T07:55:00;33.30;38.30
25741;DHT22;13592;50.838;4.412;2023-04-03T08:04:08;33.60;35.20
25741;DHT22;13592;50.838;4.412;2023-04-03T08:10:10;33.60;35.50
25741;DHT22;13592;50.838;4.412;2023-04-03T08:37:49;30.70;35.50
25741;DHT22;13592;50.838;4.412;2023-04-03T08:40:15;27.30;39.40
25741;DHT22;13592;50.838;4.412;2023-04-03T08:43:05;24.60;43.50
25741;DHT22;13592;50.838;4.412;2023-04-03T08:45:52;22.80;45.60
25741;DHT22;13592;50.838;4.412;2023-04-03T08:48:33;21.00;49.50
25741;DHT22;13592;50.838;4.412;2023-04-03T08:51:18;19.70;52.80
25741;DHT22;13592;50.838;4.412;2023-04-03T08:54:13;19.80;52.50
25741;DHT22;13592;50.838;4.412;2023-04-03T08:56:49;21.60;50.30
25741;DHT22;13592;50.838;4.412;2023-04-03T09:20:14;31.90;36.50
25741;DHT22;13592;50.838;4.412;2023-04-03T09:22:54;32.50;35.80
25741;DHT22;13592;50.838;4.412;2023-04-03T09:32:03;34.30;32.90
25741;DHT22;13592;50.838;4.412;2023-04-03T09:38:00;34.00;32.10
25741;DHT22;13592;50.838;4.412;2023-04-03T09:40:39;33.50;32.70
25741;DHT22;13592;50.838;4.412;2023-04-03T09:43:27;33.90;31.90
25741;DHT22;13592;50.838;4.412;2023-04-03T10:16:11;35.10;29.80
25741;DHT22;13592;50.838;4.412;2023-04-03T10:18:45;33.00;31.30
25741;DHT22;13592;50.838;4.412;2023-04-03T10:27:29;34.70;30.00
25741;DHT22;13592;50.838;4.412;2023-04-03T10:36:12;34.80;29.00
25741;DHT22;13592;50.838;4.412;2023-04-03T10:44:15;34.20;28.60
25741;DHT22;13592;50.838;4.412;2023-04-03T10:46:45;33.70;28.50
25741;DHT22;13592;50.838;4.412;2023-04-03T10:52:46;33.60;28.70
25741;DHT22;13592;50.838;4.412;2023-04-03T10:57:28;33.70;30.60
25741;DHT22;13592;50.838;4.412;2023-04-03T11:02:51;33.60;28.40
25741;DHT22;13592;50.838;4.412;2023-04-03T11:05:21;32.70;28.00
25741;DHT22;13592;50.838;4.412;2023-04-03T11:07:55;32.00;29.50
25741;DHT22;13592;50.838;4.412;2023-04-03T11:13:38;30.20;31.00
25741;DHT22;13592;50.838;4.412;2023-04-03T11:16:16;29.10;30.30
25741;DHT22;13592;50.838;4.412;2023-04-03T11:19:25;28.00;32.40
25741;DHT22;13592;50.838;4.412;2023-04-03T11:24:51;26.50;34.70
25741;DHT22;13592;50.838;4.412;2023-04-03T11:27:44;26.10;33.00
25741;DHT22;13592;50.838;4.412;2023-04-03T11:30:27;25.00;33.50
25741;DHT22;13592;50.838;4.412;2023-04-03T11:36:25;22.60;38.80
25741;DHT22;13592;50.838;4.412;2023-04-03T11:39:15;21.70;41.60
25741;DHT22;13592;50.838;4.412;2023-04-03T11:41:41;21.00;40.50
25741;DHT22;13592;50.838;4.412;2023-04-03T11:46:59;18.80;46.30
25741;DHT22;13592;50.838;4.412;2023-04-03T11:58:04;17.10;47.00
25741;DHT22;13592;50.838;4.412;2023-04-03T12:08:53;16.00;48.70
25741;DHT22;13592;50.838;4.412;2023-04-03T12:11:36;15.90;48.00
25741;DHT22;13592;50.838;4.412;2023-04-03T12:14:12;15.70;49.40
25741;DHT22;13592;50.838;4.412;2023-04-03T12:16:44;15.40;49.50
25741;DHT22;13592;50.838;4.412;2023-04-03T12:24:36;15.00;49.30
25741;DHT22;13592;50.838;4.412;2023-04-03T12:29:35;14.70;47.80
25741;DHT22;13592;50.838;4.412;2023-04-03T12:52:04;14.40;49.70
25741;DHT22;13592;50.838;4.412;2023-04-03T12:57:44;14.30;49.20
25741;DHT22;13592;50.838;4.412;2023-04-03T13:03:29;14.30;47.50
25741;DHT22;13592;50.838;4.412;2023-04-03T13:08:57;14.30;48.10
25741;DHT22;13592;50.838;4.412;2023-04-03T13:11:49;14.10;49.50
25741;DHT22;13592;50.838;4.412;2023-04-03T13:14:34;13.90;49.10
25741;DHT22;13592;50.838;4.412;2023-04-03T13:17:15;13.90;49.20
25741;DHT22;13592;50.838;4.412;2023-04-03T13:19:46;14.00;48.80
25741;DHT22;13592;50.838;4.412;2023-04-03T13:25:22;13.90;49.10
25741;DHT22;13592;50.838;4.412;2023-04-03T13:28:14;13.80;48.20
25741;DHT22;13592;50.838;4.412;2023-04-03T13:33:29;13.80;47.40
25741;DHT22;13592;50.838;4.412;2023-04-03T13:36:05;14.00;48.60
25741;DHT22;13592;50.838;4.412;2023-04-03T13:38:47;13.90;48.30
25741;DHT22;13592;50.838;4.412;2023-04-03T13:46:43;13.90;49.00
25741;DHT22;13592;50.838;4.412;2023-04-03T13:52:22;13.90;49.90
25741;DHT22;13592;50.838;4.412;2023-04-03T13:54:52;14.00;48.00
25741;DHT22;13592;50.838;4.412;2023-04-03T13:57:18;13.90;50.20
25741;DHT22;13592;50.838;4.412;2023-04-03T13:59:46;13.80;50.40
25741;DHT22;13592;50.838;4.412;2023-04-03T14:02:32;13.80;50.80
25741;DHT22;13592;50.838;4.412;2023-04-03T14:08:29;13.80;49.50
25741;DHT22;13592;50.838;4.412;2023-04-03T14:11:01;13.50;51.00
25741;DHT22;13592;50.838;4.412;2023-04-03T14:22:48;13.50;49.90
25741;DHT22;13592;50.838;4.412;2023-04-03T14:34:05;13.60;50.50
25741;DHT22;13592;50.838;4.412;2023-04-03T14:36:35;13.80;50.60
25741;DHT22;13592;50.838;4.412;2023-04-03T14:39:32;13.90;49.20
25741;DHT22;13592;50.838;4.412;2023-04-03T14:42:05;13.90;49.10
25741;DHT22;13592;50.838;4.412;2023-04-03T14:44:33;13.80;49.10
25741;DHT22;13592;50.838;4.412;2023-04-03T14:47:00;13.70;50.60
25741;DHT22;13592;50.838;4.412;2023-04-03T14:49:32;13.70;49.30
25741;DHT22;13592;50.838;4.412;2023-04-03T14:55:16;13.60;51.40
25741;DHT22;13592;50.838;4.412;2023-04-03T14:57:51;13.60;50.30
25741;DHT22;13592;50.838;4.412;2023-04-03T15:00:25;13.50;50.20
25741;DHT22;13592;50.838;4.412;2023-04-03T15:02:57;13.50;49.50
25741;DHT22;13592;50.838;4.412;2023-04-03T15:05:34;13.50;49.60
25741;DHT22;13592;50.838;4.412;2023-04-03T15:08:21;13.60;49.30
25741;DHT22;13592;50.838;4.412;2023-04-03T15:10:53;13.50;49.70
25741;DHT22;13592;50.838;4.412;2023-04-03T15:13:23;13.30;50.30
25741;DHT22;13592;50.838;4.412;2023-04-03T15:18:48;13.30;50.70
25741;DHT22;13592;50.838;4.412;2023-04-03T15:21:24;13.40;51.30
25741;DHT22;13592;50.838;4.412;2023-04-03T15:23:54;13.30;52.70
25741;DHT22;13592;50.838;4.412;2023-04-03T15:26:22;13.30;51.60
25741;DHT22;13592;50.838;4.412;2023-04-03T15:28:48;13.10;52.50
25741;DHT22;13592;50.838;4.412;2023-04-03T15:31:21;13.20;54.60
25741;DHT22;13592;50.838;4.412;2023-04-03T15:33:51;13.30;50.80
25741;DHT22;13592;50.838;4.412;2023-04-03T15:36:19;13.20;52.80
25741;DHT22;13592;50.838;4.412;2023-04-03T15:38:45;13.20;51.30
25741;DHT22;13592;50.838;4.412;2023-04-03T15:41:22;13.10;50.70
25741;DHT22;13592;50.838;4.412;2023-04-03T15:43:53;13.00;49.90
25741;DHT22;13592;50.838;4.412;2023-04-03T15:46:27;13.00;51.40
25741;DHT22;13592;50.838;4.412;2023-04-03T15:48:52;12.90;60.00
25741;DHT22;13592;50.838;4.412;2023-04-03T15:51:20;12.70;52.90
25741;DHT22;13592;50.838;4.412;2023-04-03T15:56:50;12.70;53.00
25741;DHT22;13592;50.838;4.412;2023-04-03T15:59:25;12.60;57.80
25741;DHT22;13592;50.838;4.412;2023-04-03T16:01:53;12.60;57.90
25741;DHT22;13592;50.838;4.412;2023-04-03T16:04:40;12.60;58.20
25741;DHT22;13592;50.838;4.412;2023-04-03T16:07:09;12.50;57.70
25741;DHT22;13592;50.838;4.412;2023-04-03T16:09:35;12.30;59.90
25741;DHT22;13592;50.838;4.412;2023-04-03T16:12:08;12.30;60.00
25741;DHT22;13592;50.838;4.412;2023-04-03T16:14:37;12.30;57.10
25741;DHT22;13592;50.838;4.412;2023-04-03T16:17:07;12.30;62.30
25741;DHT22;13592;50.838;4.412;2023-04-03T16:19:54;12.30;59.10
25741;DHT22;13592;50.838;4.412;2023-04-03T16:25:15;12.30;57.10
25741;DHT22;13592;50.838;4.412;2023-04-03T16:27:45;12.30;60.10
25741;DHT22;13592;50.838;4.412;2023-04-03T16:30:21;12.20;61.10
25741;DHT22;13592;50.838;4.412;2023-04-03T16:35:39;12.20;59.40
25741;DHT22;13592;50.838;4.412;2023-04-03T16:38:11;12.10;56.60
25741;DHT22;13592;50.838;4.412;2023-04-03T16:40:42;12.10;57.40
25741;DHT22;13592;50.838;4.412;2023-04-03T16:43:13;12.00;59.10
25741;DHT22;13592;50.838;4.412;2023-04-03T16:45:41;11.90;59.10
25741;DHT22;13592;50.838;4.412;2023-04-03T16:51:17;11.80;62.80
25741;DHT22;13592;50.838;4.412;2023-04-03T16:53:47;11.80;63.70
25741;DHT22;13592;50.838;4.412;2023-04-03T16:56:46;11.70;63.20
25741;DHT22;13592;50.838;4.412;2023-04-03T16:59:16;11.80;60.50
25741;DHT22;13592;50.838;4.412;2023-04-03T17:01:48;11.80;62.80
25741;DHT22;13592;50.838;4.412;2023-04-03T17:04:22;11.90;64.90
25741;DHT22;13592;50.838;4.412;2023-04-03T17:06:51;11.70;64.90
25741;DHT22;13592;50.838;4.412;2023-04-03T17:09:17;11.70;64.40
25741;DHT22;13592;50.838;4.412;2023-04-03T17:11:54;11.80;66.10
25741;DHT22;13592;50.838;4.412;2023-04-03T17:14:31;11.90;61.80
25741;DHT22;13592;50.838;4.412;2023-04-03T17:17:07;11.90;63.70
25741;DHT22;13592;50.838;4.412;2023-04-03T17:19:37;11.60;63.00
25741;DHT22;13592;50.838;4.412;2023-04-03T17:22:05;11.80;63.90
25741;DHT22;13592;50.838;4.412;2023-04-03T17:24:33;11.70;65.30
25741;DHT22;13592;50.838;4.412;2023-04-03T17:26:59;11.70;65.40
25741;DHT22;13592;50.838;4.412;2023-04-03T17:29:30;11.80;62.20
25741;DHT22;13592;50.838;4.412;2023-04-03T17:32:03;11.80;63.30
25741;DHT22;13592;50.838;4.412;2023-04-03T17:34:30;11.60;64.00
25741;DHT22;13592;50.838;4.412;2023-04-03T17:36:57;11.70;65.40
25741;DHT22;13592;50.838;4.412;2023-04-03T17:39:29;11.60;64.60
25741;DHT22;13592;50.838;4.412;2023-04-03T17:42:05;11.70;59.80
25741;DHT22;13592;50.838;4.412;2023-04-03T17:44:34;11.40;63.20
25741;DHT22;13592;50.838;4.412;2023-04-03T17:47:01;11.50;62.20
25741;DHT22;13592;50.838;4.412;2023-04-03T17:49:28;11.60;63.40
25741;DHT22;13592;50.838;4.412;2023-04-03T17:54:57;11.40;65.30
25741;DHT22;13592;50.838;4.412;2023-04-03T17:57:30;11.50;65.40
25741;DHT22;13592;50.838;4.412;2023-04-03T18:00:06;11.40;65.40
25741;DHT22;13592;50.838;4.412;2023-04-03T18:02:33;11.30;63.60
25741;DHT22;13592;50.838;4.412;2023-04-03T18:04:59;11.40;62.40
25741;DHT22;13592;50.838;4.412;2023-04-03T18:07:24;11.30;66.50
25741;DHT22;13592;50.838;4.412;2023-04-03T18:09:57;11.30;66.10
25741;DHT22;13592;50.838;4.412;2023-04-03T18:12:23;11.20;67.60
25741;DHT22;13592;50.838;4.412;2023-04-03T18:14:50;11.10;66.10
25741;DHT22;13592;50.838;4.412;2023-04-03T18:17:19;11.00;67.00
25741;DHT22;13592;50.838;4.412;2023-04-03T18:19:49;11.00;65.70
25741;DHT22;13592;50.838;4.412;2023-04-03T18:22:31;10.90;66.10
25741;DHT22;13592;50.838;4.412;2023-04-03T18:25:04;11.00;62.60
25741;DHT22;13592;50.838;4.412;2023-04-03T18:27:34;10.90;66.80
25741;DHT22;13592;50.838;4.412;2023-04-03T18:30:05;10.90;64.30
25741;DHT22;13592;50.838;4.412;2023-04-03T18:32:40;10.90;65.40
25741;DHT22;13592;50.838;4.412;2023-04-03T18:35:12;10.90;67.20
25741;DHT22;13592;50.838;4.412;2023-04-03T18:37:40;10.90;66.70
25741;DHT22;13592;50.838;4.412;2023-04-03T18:40:08;10.70;67.30
25741;DHT22;13592;50.838;4.412;2023-04-03T18:45:04;10.80;68.00
25741;DHT22;13592;50.838;4.412;2023-04-03T18:47:31;10.70;67.50
25741;DHT22;13592;50.838;4.412;2023-04-03T18:50:04;10.60;63.80
25741;DHT22;13592;50.838;4.412;2023-04-03T18:52:33;10.60;65.20
25741;DHT22;13592;50.838;4.412;2023-04-03T18:54:59;10.40;68.60
25741;DHT22;13592;50.838;4.412;2023-04-03T18:59:55;10.60;67.00
25741;DHT22;13592;50.838;4.412;2023-04-03T19:02:20;10.60;67.50
25741;DHT22;13592;50.838;4.412;2023-04-03T19:05:07;10.50;68.30
25741;DHT22;13592;50.838;4.412;2023-04-03T19:10:12;10.50;68.00
25741;DHT22;13592;50.838;4.412;2023-04-03T19:12:46;10.50;67.40
25741;DHT22;13592;50.838;4.412;2023-04-03T19:15:12;10.50;67.10
25741;DHT22;13592;50.838;4.412;2023-04-03T19:17:39;10.60;65.70
25741;DHT22;13592;50.838;4.412;2023-04-03T19:20:08;10.60;66.60
25741;DHT22;13592;50.838;4.412;2023-04-03T19:22:36;10.40;68.50
25741;DHT22;13592;50.838;4.412;2023-04-03T19:25:04;10.20;69.90
25741;DHT22;13592;50.838;4.412;2023-04-03T19:27:32;10.00;68.70
25741;DHT22;13592;50.838;4.412;2023-04-03T19:29:59;10.00;68.90
25741;DHT22;13592;50.838;4.412;2023-04-03T19:32:25;10.10;68.80
25741;DHT22;13592;50.838;4.412;2023-04-03T19:34:50;10.20;69.20
25741;DHT22;13592;50.838;4.412;2023-04-03T19:37:21;10.30;66.90
25741;DHT22;13592;50.838;4.412;2023-04-03T19:39:54;10.10;69.10
25741;DHT22;13592;50.838;4.412;2023-04-03T19:42:26;10.00;69.60
25741;DHT22;13592;50.838;4.412;2023-04-03T19:50:18;9.80;70.80
25741;DHT22;13592;50.838;4.412;2023-04-03T19:52:46;9.80;71.10
25741;DHT22;13592;50.838;4.412;2023-04-03T19:55:12;9.90;71.10
25741;DHT22;13592;50.838;4.412;2023-04-03T19:57:45;10.10;68.10
25741;DHT22;13592;50.838;4.412;2023-04-03T20:00:13;9.90;69.30
25741;DHT22;13592;50.838;4.412;2023-04-03T20:02:39;9.80;69.10
25741;DHT22;13592;50.838;4.412;2023-04-03T20:05:12;10.10;70.10
25741;DHT22;13592;50.838;4.412;2023-04-03T20:07:55;10.00;68.70
25741;DHT22;13592;50.838;4.412;2023-04-03T20:12:52;9.90;70.30
25741;DHT22;13592;50.838;4.412;2023-04-03T20:15:18;9.80;71.20
25741;DHT22;13592;50.838;4.412;2023-04-03T20:17:47;9.60;70.50
25741;DHT22;13592;50.838;4.412;2023-04-03T20:20:15;9.60;71.00
25741;DHT22;13592;50.838;4.412;2023-04-03T20:22:41;9.50;71.90
25741;DHT22;13592;50.838;4.412;2023-04-03T20:25:11;9.50;71.40
25741;DHT22;13592;50.838;4.412;2023-04-03T20:27:40;9.40;72.40
25741;DHT22;13592;50.838;4.412;2023-04-03T20:30:06;9.50;71.80
25741;DHT22;13592;50.838;4.412;2023-04-03T20:32:35;9.40;71.40
25741;DHT22;13592;50.838;4.412;2023-04-03T20:35:03;9.40;72.80
25741;DHT22;13592;50.838;4.412;2023-04-03T20:37:29;9.20;73.40
25741;DHT22;13592;50.838;4.412;2023-04-03T20:39:58;9.30;72.90
25741;DHT22;13592;50.838;4.412;2023-04-03T20:42:24;9.60;72.10
25741;DHT22;13592;50.838;4.412;2023-04-03T20:44:52;9.50;71.20
25741;DHT22;13592;50.838;4.412;2023-04-03T20:47:21;9.40;72.90
25741;DHT22;13592;50.838;4.412;2023-04-03T20:49:51;9.60;72.50
25741;DHT22;13592;50.838;4.412;2023-04-03T20:52:23;9.50;72.30
25741;DHT22;13592;50.838;4.412;2023-04-03T20:54:49;9.50;72.60
25741;DHT22;13592;50.838;4.412;2023-04-03T20:57:24;9.40;72.20
25741;DHT22;13592;50.838;4.412;2023-04-03T20:59:55;9.20;73.00
25741;DHT22;13592;50.838;4.412;2023-04-03T21:02:23;9.30;72.90
25741;DHT22;13592;50.838;4.412;2023-04-03T21:04:53;9.30;74.30
25741;DHT22;13592;50.838;4.412;2023-04-03T21:20:50;9.00;74.90
25741;DHT22;13592;50.838;4.412;2023-04-03T21:23:17;9.00;75.40
25741;DHT22;13592;50.838;4.412;2023-04-03T21:25:51;9.00;75.20
25741;DHT22;13592;50.838;4.412;2023-04-03T21:28:16;8.90;75.20
25741;DHT22;13592;50.838;4.412;2023-04-03T21:33:12;8.90;75.10
25741;DHT22;13592;50.838;4.412;2023-04-03T21:35:37;8.90;75.20
25741;DHT22;13592;50.838;4.412;2023-04-03T21:38:03;9.00;75.80
25741;DHT22;13592;50.838;4.412;2023-04-03T21:40:29;9.00;75.40
25741;DHT22;13592;50.838;4.412;2023-04-03T21:42:56;9.00;75.80
25741;DHT22;13592;50.838;4.412;2023-04-03T21:45:21;8.80;75.80
25741;DHT22;13592;50.838;4.412;2023-04-03T21:47:48;8.80;76.80
25741;DHT22;13592;50.838;4.412;2023-04-03T21:52:45;8.90;75.60
25741;DHT22;13592;50.838;4.412;2023-04-03T21:55:11;8.80;76.20
25741;DHT22;13592;50.838;4.412;2023-04-03T21:57:39;8.80;76.90
25741;DHT22;13592;50.838;4.412;2023-04-03T22:00:05;8.70;76.60
25741;DHT22;13592;50.838;4.412;2023-04-03T22:02:37;8.70;76.10
25741;DHT22;13592;50.838;4.412;2023-04-03T22:07:33;8.70;77.10
25741;DHT22;13592;50.838;4.412;2023-04-03T22:09:59;8.80;76.40